Terminal Aerodrome Forecast
Issued by NWS Albany, NY

Home | Current Version | Previous Version | Text Only | Print | Product List | Glossary On
Versions: 1 2 3 4 5 6 7 8 9 10 11 12 13 14 15 16 17
862
FTUS41 KALY 271140
TAFALB
TAF
KALB 271140Z 2712/2812 17006KT P6SM BKN100
     FM271600 18010G15KT P6SM SCT070 PROB30 2721/2724 3SM SHRA BR
      BKN070
     FM280000 18007KT P6SM FEW060=

USA.gov is the U.S. government's official web portal to all federal, state and local government web resources and services.